Time;durP1;ratioP1;P1;durP2;ratioP2;P2;SDS_P1;SDS_P2;PMS_P1;PMS_P2;Temp;Humidity;BMP_temperature;BMP_pressure;BME280_temperature;BME280_humidity;BME280_pressure;Samples;Min_cycle;Max_cycle;Signal;HPM_P1;HPM_P2
2021/11/08 00:00:33;;;;;;;4.05;3.65;;;;;;;11.22;70.79;94279.31;1703043;83;21115;-60
2021/11/08 00:03:05;;;;;;;4.47;4.03;;;;;;;11.20;70.91;94274.84;1677997;83;21023;-59
2021/11/08 00:05:36;;;;;;;4.30;3.52;;;;;;;11.17;70.91;94277.78;1701902;83;21524;-60
2021/11/08 00:08:03;;;;;;;5.33;3.92;;;;;;;11.13;71.06;94275.18;1673206;83;21100;-61
2021/11/08 00:10:33;;;;;;;5.53;3.77;;;;;;;11.10;71.14;94282.99;1701712;83;21350;-60
2021/11/08 00:13:01;;;;;;;6.62;4.45;;;;;;;11.06;71.30;94292.03;1689833;83;21076;-60
2021/11/08 00:15:33;;;;;;;7.37;4.55;;;;;;;11.06;71.22;94291.25;1704242;83;21014;-60
2021/11/08 00:18:04;;;;;;;6.85;4.08;;;;;;;11.05;71.24;94286.38;1677602;84;21196;-61
2021/11/08 00:20:42;;;;;;;9.98;5.10;;;;;;;11.03;71.29;94277.03;1690537;83;21541;-60
2021/11/08 00:23:08;;;;;;;7.83;4.33;;;;;;;10.99;71.24;94273.05;1700170;82;21074;-60
2021/11/08 00:25:31;;;;;;;5.47;3.65;;;;;;;10.96;71.29;94264.34;1711071;83;21086;-60
2021/11/08 00:27:59;;;;;;;6.55;4.00;;;;;;;10.96;71.22;94273.98;1703105;83;21133;-60
2021/11/08 00:30:30;;;;;;;4.28;3.42;;;;;;;10.94;71.26;94275.66;1694703;83;21131;-60
2021/11/08 00:32:54;;;;;;;6.70;4.28;;;;;;;10.93;71.17;94280.41;1694015;84;21543;-60
2021/11/08 00:35:21;;;;;;;5.90;4.80;;;;;;;10.89;71.25;94279.81;1677233;83;20978;-61
2021/11/08 00:37:50;;;;;;;7.12;4.60;;;;;;;10.85;71.30;94276.45;1685765;83;21196;-61
2021/11/08 00:40:18;;;;;;;6.22;4.50;;;;;;;10.83;71.29;94279.50;1689397;83;20951;-60
2021/11/08 00:42:45;;;;;;;10.25;5.40;;;;;;;10.80;71.34;94276.30;1680119;83;21138;-58
2021/11/08 00:45:11;;;;;;;7.10;4.97;;;;;;;10.77;71.41;94276.59;1714871;83;20970;-61
2021/11/08 00:47:38;;;;;;;7.65;5.62;;;;;;;10.76;71.42;94275.07;1709135;83;21097;-60
2021/11/08 00:50:07;;;;;;;8.38;6.00;;;;;;;10.74;71.39;94272.02;1702710;83;21118;-60
2021/11/08 00:52:35;;;;;;;7.10;4.70;;;;;;;10.72;71.53;94269.56;1706281;83;21101;-60
2021/11/08 00:55:03;;;;;;;5.97;3.90;;;;;;;10.73;71.50;94266.97;1700996;84;21091;-62
2021/11/08 00:57:34;;;;;;;5.78;4.47;;;;;;;10.69;71.38;94257.36;1692824;83;21075;-60
2021/11/08 01:00:01;;;;;;;7.85;5.35;;;;;;;10.64;71.44;94243.59;1697449;83;21011;-60
2021/11/08 01:02:29;;;;;;;4.87;4.05;;;;;;;10.62;71.56;94245.27;1709341;82;21105;-59
2021/11/08 01:04:59;;;;;;;4.67;4.03;;;;;;;10.61;71.42;94258.88;1697918;83;21108;-60
2021/11/08 01:07:29;;;;;;;6.67;4.60;;;;;;;10.59;71.37;94266.81;1692658;83;21109;-60
2021/11/08 01:09:56;;;;;;;6.28;4.05;;;;;;;10.56;71.51;94267.74;1714420;82;21017;-60
2021/11/08 01:12:25;;;;;;;5.72;4.10;;;;;;;10.53;71.53;94264.53;1674604;84;20978;-60
2021/11/08 01:14:55;;;;;;;6.08;4.42;;;;;;;10.48;71.62;94258.25;1702427;84;21455;-60
2021/11/08 01:17:22;;;;;;;4.62;4.00;;;;;;;10.44;71.78;94271.39;1708121;84;21517;-60
2021/11/08 01:19:50;;;;;;;4.75;3.30;;;;;;;10.39;71.90;94274.76;1698281;83;21254;-58
2021/11/08 01:22:18;;;;;;;3.50;3.10;;;;;;;10.36;71.88;94266.05;1696293;82;21553;-60
2021/11/08 01:24:53;;;;;;;4.90;3.62;;;;;;;10.32;71.84;94266.81;1708383;83;21056;-60
2021/11/08 01:27:34;;;;;;;5.17;3.83;;;;;;;10.30;71.95;94260.98;1716974;83;21029;-60
2021/11/08 01:30:01;;;;;;;6.83;4.70;;;;;;;10.31;72.10;94259.79;1704473;83;21116;-60
2021/11/08 01:32:28;;;;;;;6.58;4.25;;;;;;;10.31;71.96;94262.54;1701004;83;22082;-60
2021/11/08 01:34:57;;;;;;;5.35;4.10;;;;;;;10.29;71.99;94267.70;1709488;83;20966;-60
2021/11/08 01:37:23;;;;;;;5.62;3.77;;;;;;;10.24;72.03;94268.31;1686662;83;21648;-61
2021/11/08 01:39:51;;;;;;;4.03;3.17;;;;;;;10.19;72.16;94274.42;1693918;83;21010;-60
2021/11/08 01:42:18;;;;;;;7.20;3.95;;;;;;;10.15;72.21;94295.80;1710045;83;21085;-60
2021/11/08 01:44:45;;;;;;;6.85;4.28;;;;;;;10.08;72.37;94293.33;1660940;84;21157;-60
2021/11/08 01:47:12;;;;;;;5.90;3.90;;;;;;;10.03;72.58;94300.80;1696875;83;21050;-59
2021/11/08 01:49:39;;;;;;;5.53;4.55;;;;;;;10.03;72.76;94318.66;1700150;83;21574;-60
2021/11/08 01:52:13;;;;;;;5.47;3.77;;;;;;;9.99;72.95;94305.66;1710618;83;21062;-60
2021/11/08 01:54:39;;;;;;;3.45;3.15;;;;;;;9.94;73.11;94293.86;1696517;83;21018;-60
2021/11/08 01:57:08;;;;;;;5.22;4.05;;;;;;;9.89;73.22;94295.24;1705588;83;21146;-60
2021/11/08 01:59:35;;;;;;;5.78;3.67;;;;;;;9.83;73.30;94297.03;1702948;82;21065;-60
2021/11/08 02:02:03;;;;;;;6.12;4.00;;;;;;;9.81;73.41;94302.84;1701908;84;21014;-60
2021/11/08 02:04:30;;;;;;;6.62;4.55;;;;;;;9.80;73.47;94304.81;1695177;83;21097;-60
2021/11/08 02:06:57;;;;;;;5.37;4.00;;;;;;;9.80;73.41;94304.81;1700890;83;21216;-60
2021/11/08 02:09:25;;;;;;;5.05;3.80;;;;;;;9.76;73.57;94296.58;1696946;83;21059;-60
2021/11/08 02:11:52;;;;;;;7.42;4.50;;;;;;;9.75;73.72;94308.75;1689832;83;21073;-60
2021/11/08 02:14:19;;;;;;;4.92;4.20;;;;;;;9.71;73.84;94319.12;1694005;83;21001;-59
2021/11/08 02:16:46;;;;;;;6.65;4.78;;;;;;;9.65;73.92;94318.19;1692089;83;20986;-59
2021/11/08 02:19:14;;;;;;;5.08;3.95;;;;;;;9.61;74.02;94316.19;1705536;83;21019;-59
2021/11/08 02:21:41;;;;;;;8.00;4.40;;;;;;;9.56;74.14;94311.27;1702954;83;21811;-60
2021/11/08 02:24:14;;;;;;;6.05;4.42;;;;;;;9.53;74.20;94301.19;1663498;84;21090;-60
2021/11/08 02:26:37;;;;;;;5.85;4.00;;;;;;;9.52;74.28;94299.66;1707813;83;21502;-60
2021/11/08 02:29:04;;;;;;;7.85;4.97;;;;;;;9.51;74.34;94298.13;1701481;83;21038;-61
2021/11/08 02:31:33;;;;;;;8.65;4.10;;;;;;;9.45;74.61;94284.84;1699072;83;21002;-61
2021/11/08 02:34:00;;;;;;;6.80;4.53;;;;;;;9.42;74.63;94286.50;1697903;83;21134;-60
2021/11/08 02:36:27;;;;;;;8.18;5.58;;;;;;;9.40;74.70;94294.42;1700243;83;21106;-61
2021/11/08 02:38:56;;;;;;;15.68;8.20;;;;;;;9.39;74.78;94294.86;1696407;83;21136;-60
2021/11/08 02:41:23;;;;;;;11.40;5.22;;;;;;;9.35;74.85;94305.99;1683147;83;21870;-59
2021/11/08 02:43:51;;;;;;;8.10;5.72;;;;;;;9.35;74.84;94290.12;1697133;83;21054;-60
2021/11/08 02:46:20;;;;;;;9.53;4.90;;;;;;;9.36;74.84;94290.27;1683923;83;21144;-60
2021/11/08 02:48:49;;;;;;;8.78;4.80;;;;;;;9.38;74.76;94287.84;1697615;83;20979;-60
2021/11/08 02:51:23;;;;;;;5.85;4.60;;;;;;;9.39;74.83;94295.64;1702762;83;21065;-59
2021/11/08 02:53:50;;;;;;;;;;;;;;;9.39;74.66;94294.86;1690584;83;21128;-61
2021/11/08 02:56:17;;;;;;;32.93;19.25;;;;;;;9.38;74.60;94308.42;1696116;83;20449;-59
2021/11/08 02:58:44;;;;;;;34.48;19.67;;;;;;;9.34;74.50;94319.56;1693844;83;21164;-59
2021/11/08 03:01:16;;;;;;;22.50;13.55;;;;;;;9.33;74.47;94310.39;1684770;84;20951;-60
2021/11/08 03:03:51;;;;;;;24.80;16.20;;;;;;;9.32;74.54;94308.86;1664099;84;21013;-60
2021/11/08 03:06:22;;;;;;;10.43;7.12;;;;;;;9.34;74.53;94312.70;1619085;87;21164;-60
2021/11/08 03:08:48;;;;;;;;;;;;;;;9.37;73.98;94297.29;1640420;86;21101;-60
2021/11/08 03:11:15;;;;;;;10.28;6.75;;;;;;;9.40;73.66;94311.52;1634033;86;21124;-59
2021/11/08 03:13:50;;;;;;;9.38;5.28;;;;;;;9.45;73.31;94296.57;1628848;86;21610;-60
2021/11/08 03:18:58;;;;;;;8.95;5.53;;;;;;;9.53;72.31;94294.32;1636584;87;21208;-60
2021/11/08 03:21:27;;;;;;;8.43;6.30;;;;;;;9.58;71.79;94292.38;1644798;86;21189;-59
2021/11/08 03:23:57;;;;;;;9.75;5.85;;;;;;;9.59;71.65;94315.87;1650766;86;21166;-58
2021/11/08 03:26:45;;;;;;;8.08;5.85;;;;;;;9.57;71.48;94313.57;1636272;86;21476;-61
2021/11/08 03:29:10;;;;;;;7.45;5.80;;;;;;;9.60;71.19;94327.77;1631344;86;21593;-60
2021/11/08 03:31:36;;;;;;;8.38;5.90;;;;;;;9.62;70.93;94342.44;1592378;87;21610;-58
2021/11/08 03:34:03;;;;;;;8.18;6.03;;;;;;;9.65;70.50;94340.16;1619913;86;21061;-60
2021/11/08 03:36:30;;;;;;;6.53;4.50;;;;;;;9.63;69.01;94329.61;1646588;86;21130;-60
2021/11/08 03:38:58;;;;;;;4.47;3.45;;;;;;;9.67;66.99;94330.27;1651807;85;21081;-59
2021/11/08 03:41:27;;;;;;;5.10;3.87;;;;;;;9.72;66.97;94345.37;1645844;86;21039;-60
2021/11/08 03:43:55;;;;;;;3.42;3.12;;;;;;;9.74;67.47;94341.56;1651491;86;21031;-60
2021/11/08 03:46:22;;;;;;;4.72;3.92;;;;;;;9.75;67.74;94333.47;1640928;86;21046;-60
2021/11/08 03:48:49;;;;;;;3.92;3.55;;;;;;;9.73;67.90;94322.17;1640984;86;21802;-61
2021/11/08 03:51:17;;;;;;;3.20;3.00;;;;;;;9.72;65.71;94311.03;1648645;86;21035;-61
2021/11/08 03:53:44;;;;;;;3.42;3.10;;;;;;;9.76;66.80;94316.55;1716939;82;20966;-60
2021/11/08 03:56:11;;;;;;;3.42;3.00;;;;;;;9.80;67.21;94334.28;1708667;83;21570;-59
2021/11/08 03:58:38;;;;;;;3.92;3.62;;;;;;;9.80;67.35;94344.64;1700417;83;21089;-60
2021/11/08 04:01:05;;;;;;;5.62;3.95;;;;;;;9.81;67.28;94356.41;1705049;83;21133;-60
2021/11/08 04:03:33;;;;;;;5.95;5.30;;;;;;;9.82;66.06;94378.55;1679588;84;21002;-61
2021/11/08 04:06:00;;;;;;;5.15;4.62;;;;;;;9.81;65.37;94368.77;1690395;83;21070;-60
2021/11/08 04:08:29;;;;;;;4.97;4.55;;;;;;;9.79;65.04;94350.61;1686406;83;21165;-61
2021/11/08 04:10:56;;;;;;;4.62;4.22;;;;;;;9.78;62.75;94360.06;1704688;83;21069;-61
2021/11/08 04:13:28;;;;;;;6.35;3.92;;;;;;;9.82;62.19;94366.19;1707167;82;21430;-61
2021/11/08 04:15:55;;;;;;;4.15;3.85;;;;;;;9.85;62.10;94350.16;1678212;83;20975;-61
2021/11/08 04:18:25;;;;;;;6.80;6.30;;;;;;;9.85;62.07;94337.80;1701381;83;20974;-60
2021/11/08 04:20:52;;;;;;;7.00;6.50;;;;;;;9.85;61.92;94325.44;1707375;83;20998;-61
2021/11/08 04:23:21;;;;;;;3.98;3.60;;;;;;;9.88;62.19;94324.53;1711502;82;21042;-61
2021/11/08 04:25:47;;;;;;;4.85;4.45;;;;;;;9.87;63.40;94320.25;1705315;83;21817;-60
2021/11/08 04:28:14;;;;;;;5.50;4.17;;;;;;;9.81;64.70;94328.31;1683639;83;20970;-65
2021/11/08 04:30:42;;;;;;;5.47;4.97;;;;;;;9.74;65.37;94324.48;1718786;83;20971;-61
2021/11/08 04:33:18;;;;;;;4.83;4.20;;;;;;;9.72;65.62;94326.92;1709458;83;21014;-60
2021/11/08 04:36:01;;;;;;;11.63;8.43;;;;;;;9.69;65.47;94329.80;1682475;83;20959;-62
2021/11/08 04:43:50;;;;;;;26.27;20.68;;;;;;;9.57;66.71;94359.47;1706700;83;21010;-60
2021/11/08 04:51:57;;;;;;;23.02;14.10;;;;;;;9.57;67.89;94369.09;1679629;83;21111;-61
2021/11/08 05:31:43;;;;;;;18.23;12.35;;;;;;;9.37;75.00;94378.27;1679184;84;21507;-62
2021/11/08 05:34:10;;;;;;;18.77;13.62;;;;;;;9.38;74.97;94374.31;1701235;83;21022;-61
2021/11/08 05:36:37;;;;;;;6.83;5.83;;;;;;;9.38;75.00;94370.97;1676015;83;21596;-62
2021/11/08 05:39:05;;;;;;;8.80;6.83;;;;;;;9.35;75.02;94370.50;1704149;83;21490;-60
2021/11/08 05:41:34;;;;;;;19.25;16.50;;;;;;;9.25;75.22;94379.12;1697610;83;21027;-61
2021/11/08 05:44:02;;;;;;;16.20;14.47;;;;;;;9.19;75.87;94387.75;1678197;83;21115;-60
2021/11/08 05:46:31;;;;;;;25.85;18.50;;;;;;;9.14;76.24;94406.95;1667938;83;21097;-61
2021/11/08 05:48:58;;;;;;;118.45;69.12;;;;;;;9.10;76.40;94421.37;1693403;83;21047;-62
2021/11/08 05:51:26;;;;;;;123.80;73.72;;;;;;;9.00;76.63;94434.09;1659376;85;20994;-60
2021/11/08 05:53:54;;;;;;;62.43;38.60;;;;;;;8.97;77.11;94441.84;1672178;85;21030;-60
2021/11/08 06:51:10;;;;;;;21.80;16.42;;;;;;;9.19;76.41;94531.84;1682736;83;21541;-65
2021/11/08 06:53:37;;;;;;;37.55;27.20;;;;;;;9.28;76.71;94532.69;1702917;82;21139;-61
2021/11/08 06:56:04;;;;;;;50.00;34.13;;;;;;;9.39;76.87;94539.19;1688524;82;21043;-62
2021/11/08 06:58:32;;;;;;;53.75;36.15;;;;;;;9.46;76.77;94537.59;1691089;82;21135;-63
2021/11/08 07:01:00;;;;;;;37.83;25.92;;;;;;;9.42;76.86;94538.32;1676482;82;21813;-62
2021/11/08 07:03:27;;;;;;;34.65;25.65;;;;;;;9.37;77.16;94543.77;1682982;82;21834;-66
2021/11/08 07:05:53;;;;;;;34.65;23.73;;;;;;;9.33;77.41;94536.86;1698364;82;21149;-64
2021/11/08 07:08:20;;;;;;;60.83;43.00;;;;;;;9.31;77.68;94521.44;1706960;82;21118;-62
2021/11/08 07:10:47;;;;;;;56.18;38.15;;;;;;;9.34;77.73;94501.33;1693941;82;21080;-63
2021/11/08 07:13:14;;;;;;;55.88;38.15;;;;;;;9.37;77.88;94497.69;1677690;81;21023;-62
2021/11/08 07:15:42;;;;;;;51.48;38.40;;;;;;;9.36;78.02;94492.04;1672052;81;21091;-62
2021/11/08 07:18:09;;;;;;;47.15;37.65;;;;;;;9.30;78.06;94515.78;1677124;82;21627;-63
2021/11/08 07:20:35;;;;;;;35.45;28.47;;;;;;;9.19;78.37;94519.48;1636099;83;21171;-61
2021/11/08 07:23:03;;;;;;;36.95;25.17;;;;;;;9.15;78.59;94528.45;1669986;82;21137;-75
2021/11/08 07:25:30;;;;;;;30.00;21.65;;;;;;;9.15;78.58;94524.33;1687694;82;21017;-61
2021/11/08 07:27:57;;;;;;;33.28;21.77;;;;;;;9.18;78.50;94527.56;1642158;83;21094;-70
2021/11/08 07:30:25;;;;;;;23.87;16.17;;;;;;;9.26;78.26;94519.27;1647021;83;22217;-75
2021/11/08 07:32:52;;;;;;;19.52;15.75;;;;;;;9.36;78.01;94515.38;1641126;83;21082;-71
2021/11/08 07:35:19;;;;;;;21.65;16.20;;;;;;;9.50;77.68;94524.50;1624232;85;21113;-63
2021/11/08 07:37:47;;;;;;;50.23;36.00;;;;;;;9.56;77.03;94526.83;1613178;85;21018;-68
2021/11/08 07:40:14;;;;;;;55.65;41.88;;;;;;;9.52;77.39;94522.85;1644143;84;21150;-64
2021/11/08 07:42:42;;;;;;;55.23;37.23;;;;;;;9.45;77.83;94516.84;1629081;84;21693;-62
2021/11/08 07:45:09;;;;;;;60.35;43.05;;;;;;;9.49;78.01;94502.38;1650469;83;21029;-62
2021/11/08 07:47:37;;;;;;;43.98;32.98;;;;;;;9.56;77.87;94500.14;1652028;84;21085;-60
2021/11/08 07:50:06;;;;;;;38.00;28.95;;;;;;;9.58;77.45;94496.97;1650380;83;21166;-62
2021/11/08 07:52:33;;;;;;;36.63;27.93;;;;;;;9.55;77.52;94515.09;1628512;85;21746;-64
2021/11/08 07:55:03;;;;;;;35.23;24.35;;;;;;;9.57;77.62;94536.59;1621371;84;21035;-67
2021/11/08 07:57:29;;;;;;;35.10;23.62;;;;;;;9.65;76.76;94536.53;1643980;85;21105;-61
2021/11/08 07:59:56;;;;;;;42.78;28.52;;;;;;;9.68;76.26;94537.00;1621650;86;21110;-65
2021/11/08 08:02:23;;;;;;;49.13;33.10;;;;;;;9.75;76.32;94542.23;1656701;83;21146;-66
2021/11/08 08:04:50;;;;;;;50.40;35.55;;;;;;;9.85;76.10;94550.13;1650491;84;22628;-64
2021/11/08 08:07:19;;;;;;;71.40;43.90;;;;;;;9.86;76.16;94544.79;1649194;84;21172;-64
2021/11/08 08:09:46;;;;;;;60.75;36.80;;;;;;;9.87;76.74;94552.41;1622034;85;21104;-63
2021/11/08 08:12:15;;;;;;;70.50;41.13;;;;;;;9.91;76.56;94568.16;1640253;85;21658;-59
2021/11/08 08:14:45;;;;;;;52.38;34.85;;;;;;;9.95;76.44;94578.44;1634239;85;22382;-64
2021/11/08 08:17:11;;;;;;;45.52;31.05;;;;;;;9.99;76.02;94580.45;1649122;85;21083;-65
2021/11/08 08:19:40;;;;;;;42.53;27.80;;;;;;;9.92;75.82;94577.94;1615107;85;21109;-60
2021/11/08 08:22:08;;;;;;;29.48;20.30;;;;;;;9.88;75.78;94584.17;1653875;84;21036;-61
2021/11/08 08:24:35;;;;;;;39.83;25.88;;;;;;;9.83;74.75;94585.50;1637336;86;21081;-62
2021/11/08 08:27:04;;;;;;;48.28;26.80;;;;;;;9.84;74.76;94576.66;1647416;85;22186;-63
2021/11/08 08:29:34;;;;;;;31.48;21.05;;;;;;;9.86;74.81;94582.47;1650749;85;21175;-66
2021/11/08 08:32:01;;;;;;;28.32;18.25;;;;;;;9.98;74.22;94581.66;1626814;85;21003;-62
2021/11/08 08:34:29;;;;;;;17.05;11.33;;;;;;;10.04;73.89;94584.02;1649788;85;21481;-62
2021/11/08 08:36:57;;;;;;;11.22;8.25;;;;;;;10.07;73.25;94573.50;1637086;84;21098;-63
2021/11/08 08:39:24;;;;;;;12.70;8.85;;;;;;;10.09;72.42;94569.69;1640210;85;21093;-61
2021/11/08 08:41:52;;;;;;;12.10;9.55;;;;;;;10.05;71.92;94575.34;1663361;85;21536;-65
2021/11/08 08:44:19;;;;;;;19.90;15.10;;;;;;;10.09;72.06;94575.19;1654954;85;20990;-63
2021/11/08 08:46:46;;;;;;;18.77;13.25;;;;;;;10.17;71.79;94568.98;1602533;86;21027;-61
2021/11/08 08:49:15;;;;;;;24.30;17.82;;;;;;;10.27;71.80;94579.44;1627137;85;21145;-66
2021/11/08 08:51:42;;;;;;;17.95;12.82;;;;;;;10.38;71.84;94576.45;1637069;84;21514;-66
2021/11/08 08:54:09;;;;;;;18.73;13.00;;;;;;;10.47;71.14;94568.86;1619461;86;21302;-66
2021/11/08 08:56:37;;;;;;;19.57;13.70;;;;;;;10.57;70.42;94580.08;1652493;84;21119;-62
2021/11/08 08:59:04;;;;;;;21.02;13.28;;;;;;;10.68;69.68;94572.95;1658725;84;21486;-67
2021/11/08 09:01:31;;;;;;;22.30;14.43;;;;;;;10.79;69.31;94563.69;1630702;86;21031;-65
2021/11/08 09:03:58;;;;;;;20.80;15.15;;;;;;;10.91;69.58;94561.42;1595525;86;22341;-67
2021/11/08 09:06:26;;;;;;;21.00;15.43;;;;;;;10.96;69.99;94563.60;1630433;85;21136;-60
2021/11/08 09:08:53;;;;;;;20.25;14.60;;;;;;;10.97;70.27;94563.12;1636230;85;21594;-66
2021/11/08 09:11:21;;;;;;;15.10;12.13;;;;;;;11.01;69.48;94570.62;1636585;85;21499;-63
2021/11/08 09:13:49;;;;;;;13.68;9.35;;;;;;;11.07;69.12;94576.31;1638079;85;21080;-66
2021/11/08 09:16:18;;;;;;;14.95;11.03;;;;;;;11.05;68.56;94578.75;1618057;84;21064;-71
2021/11/08 09:18:48;;;;;;;22.30;15.38;;;;;;;11.06;67.68;94574.19;1638804;85;21442;-65
2021/11/08 09:21:19;;;;;;;23.35;16.70;;;;;;;11.10;67.68;94574.02;1633560;83;21046;-62
2021/11/08 09:23:52;;;;;;;21.68;16.05;;;;;;;11.19;67.74;94562.42;1664778;83;21514;-66
2021/11/08 09:26:20;;;;;;;18.82;13.25;;;;;;;11.24;67.67;94565.98;1654165;83;29074;-63
2021/11/08 09:28:47;;;;;;;20.43;14.95;;;;;;;11.31;67.76;94569.06;1647066;83;21050;-66
2021/11/08 09:31:14;;;;;;;23.98;16.12;;;;;;;11.37;67.34;94565.22;1652598;83;21826;-68
2021/11/08 09:33:42;;;;;;;24.47;15.83;;;;;;;11.38;66.87;94565.38;1638189;83;20940;-62
2021/11/08 09:36:09;;;;;;;17.77;12.30;;;;;;;11.41;66.58;94574.72;1612542;84;21000;-65
2021/11/08 09:38:39;;;;;;;15.98;10.58;;;;;;;11.37;65.82;94572.11;1626626;83;21031;-63
2021/11/08 09:41:08;;;;;;;14.63;10.48;;;;;;;11.36;65.33;94580.22;1651919;83;21047;-65
2021/11/08 09:43:35;;;;;;;10.98;8.88;;;;;;;11.44;65.29;94574.59;1678507;82;21149;-61
2021/11/08 09:46:01;;;;;;;11.28;8.83;;;;;;;11.59;64.37;94568.67;1675216;82;21120;-62
2021/11/08 09:48:29;;;;;;;12.20;8.73;;;;;;;11.75;63.48;94558.72;1686502;81;22083;-63
2021/11/08 09:50:56;;;;;;;14.18;9.55;;;;;;;11.86;63.52;94563.80;1691838;81;21862;-64
2021/11/08 09:53:23;;;;;;;12.93;9.23;;;;;;;11.91;63.42;94561.80;1652534;83;22958;-63
2021/11/08 09:55:50;;;;;;;13.43;8.95;;;;;;;11.97;62.94;94562.11;1682053;82;21109;-64
2021/11/08 09:58:18;;;;;;;11.73;8.90;;;;;;;11.96;62.41;94567.47;1683831;81;21101;-63
2021/11/08 10:00:50;;;;;;;13.28;9.28;;;;;;;11.90;62.03;94565.16;1645715;83;20976;-62
2021/11/08 10:03:25;;;;;;;17.42;10.50;;;;;;;11.90;62.07;94561.64;1690816;81;21150;-64
2021/11/08 10:05:54;;;;;;;15.60;11.68;;;;;;;11.95;62.58;94567.31;1677239;81;21081;-61
2021/11/08 10:08:27;;;;;;;11.33;8.25;;;;;;;12.03;62.76;94569.91;1669543;82;21113;-64
2021/11/08 10:10:57;;;;;;;9.78;7.70;;;;;;;12.09;62.42;94576.33;1673218;81;21061;-63
2021/11/08 10:13:27;;;;;;;8.33;6.50;;;;;;;12.21;61.67;94572.66;1691533;82;20994;-62
2021/11/08 10:15:59;;;;;;;7.87;6.10;;;;;;;12.32;61.32;94577.09;1688698;83;22192;-63
2021/11/08 10:18:26;;;;;;;8.88;6.62;;;;;;;12.30;60.84;94571.25;1658306;82;21048;-61
2021/11/08 10:20:58;;;;;;;9.55;7.92;;;;;;;12.25;60.99;94566.98;1688139;82;21853;-62
2021/11/08 10:23:27;;;;;;;9.70;8.20;;;;;;;12.17;61.86;94568.52;1660746;82;20958;-62
2021/11/08 10:25:54;;;;;;;9.35;7.28;;;;;;;12.20;61.81;94566.98;1672432;83;21555;-64
2021/11/08 10:28:25;;;;;;;7.70;6.03;;;;;;;12.26;61.21;94569.89;1676949;81;21131;-63
2021/11/08 10:31:02;;;;;;;6.78;5.58;;;;;;;12.27;61.94;94566.66;1676203;83;21085;-64
2021/11/08 10:33:32;;;;;;;7.15;5.75;;;;;;;12.27;61.73;94565.91;1662361;83;21143;-63
2021/11/08 10:36:05;;;;;;;9.83;6.95;;;;;;;12.23;61.84;94562.55;1664940;83;21056;-65
2021/11/08 10:38:33;;;;;;;7.90;6.25;;;;;;;12.24;61.58;94551.04;1685614;81;21486;-62
2021/11/08 10:41:05;;;;;;;8.40;6.87;;;;;;;12.26;62.13;94558.86;1689919;82;21026;-64
2021/11/08 10:43:48;;;;;;;7.50;5.70;;;;;;;12.24;61.47;94555.17;1681905;82;21046;-64
2021/11/08 10:46:28;;;;;;;7.17;5.78;;;;;;;12.22;61.20;94567.28;1683326;82;22598;-63
2021/11/08 10:49:02;;;;;;;8.90;6.37;;;;;;;12.20;61.44;94587.67;1660422;81;21702;-66
2021/11/08 10:51:30;;;;;;;14.83;7.83;;;;;;;12.20;61.51;94589.65;1692889;81;21053;-63
2021/11/08 10:54:03;;;;;;;10.90;8.43;;;;;;;12.20;60.53;94585.51;1696667;81;21580;-62
2021/11/08 10:56:48;;;;;;;;;;;;;;;12.13;60.23;94592.13;1674572;82;20934;-75
2021/11/08 10:59:19;;;;;;;13.98;8.93;;;;;;;12.11;60.46;94585.53;1674838;81;21103;-65
2021/11/08 11:01:54;;;;;;;14.93;8.40;;;;;;;12.00;60.83;94569.45;1681576;81;21059;-64
2021/11/08 11:04:38;;;;;;;10.75;8.33;;;;;;;11.97;60.53;94572.35;1698958;81;21971;-65
2021/11/08 11:07:20;;;;;;;11.03;7.28;;;;;;;11.94;60.42;94563.62;1684921;81;21695;-63
2021/11/08 11:09:47;;;;;;;14.28;6.62;;;;;;;11.82;60.84;94563.16;1648193;82;21057;-61
2021/11/08 11:12:22;;;;;;;11.80;9.38;;;;;;;11.74;60.94;94554.43;1687011;81;21071;-64
2021/11/08 11:14:59;;;;;;;14.18;8.53;;;;;;;11.62;61.41;94553.98;1681810;82;20986;-63
2021/11/08 11:17:33;;;;;;;16.60;9.53;;;;;;;11.57;61.88;94555.95;1696680;82;21192;-63
2021/11/08 11:20:13;;;;;;;15.20;7.30;;;;;;;11.51;62.20;94560.51;1692003;82;21000;-62
2021/11/08 11:22:44;;;;;;;17.00;12.93;;;;;;;11.45;62.18;94552.70;1680419;82;21641;-62
2021/11/08 11:25:22;;;;;;;13.45;9.03;;;;;;;11.43;62.57;94552.99;1676780;81;21222;-62
2021/11/08 11:27:51;;;;;;;9.55;6.55;;;;;;;11.41;62.43;94550.72;1673023;82;21093;-63
2021/11/08 11:30:28;;;;;;;10.40;7.28;;;;;;;11.42;61.73;94548.71;1675322;82;22336;-65
2021/11/08 11:33:08;;;;;;;11.45;8.15;;;;;;;11.37;61.43;94551.45;1648970;82;21101;-67
2021/11/08 11:35:42;;;;;;;17.12;11.85;;;;;;;11.36;61.76;94553.30;1690423;82;21006;-64
2021/11/08 11:38:13;;;;;;;13.22;8.78;;;;;;;11.34;62.25;94564.77;1692616;81;21137;-61
2021/11/08 11:40:44;;;;;;;;;;;;;;;11.33;61.96;94574.25;1677981;82;21423;-63
2021/11/08 11:43:14;;;;;;;11.43;8.20;;;;;;;11.29;61.97;94565.38;1683536;81;20541;-65
2021/11/08 11:45:51;;;;;;;17.12;8.05;;;;;;;11.30;61.55;94572.41;1669391;83;21172;-63
2021/11/08 11:48:20;;;;;;;10.72;7.40;;;;;;;11.28;62.34;94565.22;1684527;82;21042;-63
2021/11/08 11:50:46;;;;;;;15.32;8.55;;;;;;;11.24;62.41;94554.19;1683526;83;21110;-65
2021/11/08 11:53:13;;;;;;;11.80;8.48;;;;;;;11.16;63.03;94561.97;1678697;81;21020;-64
2021/11/08 11:55:40;;;;;;;10.80;7.62;;;;;;;11.07;63.25;94568.83;1680655;82;21498;-65
2021/11/08 11:58:07;;;;;;;8.90;6.95;;;;;;;10.98;63.82;94566.66;1657048;83;21023;-64
2021/11/08 12:00:38;;;;;;;9.18;6.70;;;;;;;10.89;64.33;94571.52;1682937;82;21084;-64
2021/11/08 12:03:05;;;;;;;12.82;7.72;;;;;;;10.78;64.54;94579.41;1685153;82;21053;-63
2021/11/08 12:05:34;;;;;;;10.10;7.67;;;;;;;10.66;64.92;94578.73;1655813;83;22335;-63
2021/11/08 12:08:04;;;;;;;12.65;9.83;;;;;;;10.53;65.19;94576.08;1671782;82;21128;-61
2021/11/08 12:10:32;;;;;;;16.02;9.53;;;;;;;10.50;65.55;94580.36;1661143;83;21126;-68
2021/11/08 12:12:59;;;;;;;11.33;8.03;;;;;;;10.49;65.98;94578.83;1678165;82;21111;-63
2021/11/08 12:15:28;;;;;;;10.43;8.18;;;;;;;10.50;66.11;94581.73;1687490;82;21135;-61
2021/11/08 12:18:11;;;;;;;13.15;10.05;;;;;;;10.53;66.65;94589.08;1675562;81;21040;-65
2021/11/08 12:20:54;;;;;;;13.15;9.35;;;;;;;10.53;66.92;94597.33;1682262;82;20987;-64
2021/11/08 12:23:31;;;;;;;10.88;8.03;;;;;;;10.50;67.20;94594.11;1685169;82;21029;-63
2021/11/08 12:25:59;;;;;;;8.73;6.60;;;;;;;10.47;67.53;94589.48;1677419;81;21406;-65
2021/11/08 12:28:27;;;;;;;13.68;8.00;;;;;;;10.44;67.80;94593.14;1675584;82;21189;-66
2021/11/08 12:30:58;;;;;;;10.48;7.42;;;;;;;10.46;68.06;94592.08;1670496;82;22142;-75
2021/11/08 12:33:34;;;;;;;10.98;7.50;;;;;;;10.48;68.13;94589.64;1659021;82;21545;-65
2021/11/08 12:36:13;;;;;;;14.25;9.83;;;;;;;10.50;67.98;94589.98;1690760;82;21018;-63
2021/11/08 12:38:47;;;;;;;12.23;7.97;;;;;;;10.48;68.04;94591.80;1686549;83;21534;-61
2021/11/08 12:41:20;;;;;;;13.60;8.83;;;;;;;10.48;68.01;94591.02;1692768;83;21161;-63
2021/11/08 12:43:57;;;;;;;10.85;8.40;;;;;;;10.47;67.97;94588.11;1663532;83;21080;-61
2021/11/08 12:46:32;;;;;;;10.55;8.80;;;;;;;10.45;68.36;94592.70;1654173;82;21042;-58
2021/11/08 12:49:23;;;;;;;14.33;10.13;;;;;;;10.44;68.51;94598.64;1655747;84;21039;-61
2021/11/08 12:51:55;;;;;;;11.80;9.65;;;;;;;10.43;68.08;94597.11;1633275;83;21025;-62
2021/11/08 12:54:22;;;;;;;9.53;7.87;;;;;;;10.41;68.11;94595.41;1684050;82;21114;-63
2021/11/08 12:56:48;;;;;;;10.35;7.55;;;;;;;10.47;68.32;94601.27;1685289;81;21521;-60
2021/11/08 12:59:26;;;;;;;7.00;6.00;;;;;;;10.48;68.43;94599.27;1678804;82;21003;-64
2021/11/08 13:02:00;;;;;;;10.95;8.13;;;;;;;10.45;68.57;94608.42;1678740;81;20942;-63
2021/11/08 13:04:42;;;;;;;13.35;10.68;;;;;;;10.40;68.76;94606.25;1691697;82;21009;-61
2021/11/08 13:07:06;;;;;;;15.25;11.57;;;;;;;10.37;68.73;94608.53;1643510;83;21139;-59
2021/11/08 13:09:41;;;;;;;14.53;10.60;;;;;;;10.31;68.83;94611.09;1658743;82;21077;-64
2021/11/08 13:12:25;;;;;;;13.05;9.93;;;;;;;10.29;69.17;94606.66;1673631;83;21813;-61
2021/11/08 13:15:20;;;;;;;12.18;8.85;;;;;;;10.23;69.61;94608.45;1656268;82;21038;-63
2021/11/08 13:17:52;;;;;;;12.00;8.48;;;;;;;10.14;69.98;94610.37;1686758;82;21022;-62
2021/11/08 13:20:23;;;;;;;10.50;8.55;;;;;;;10.11;70.42;94605.15;1672684;82;22491;-61
2021/11/08 13:22:57;;;;;;;11.45;8.43;;;;;;;10.11;70.72;94609.86;1656475;83;21078;-63
2021/11/08 13:25:31;;;;;;;18.87;13.03;;;;;;;10.10;71.00;94613.23;1659924;82;21022;-60
2021/11/08 13:28:04;;;;;;;21.17;14.87;;;;;;;10.11;71.36;94618.11;1678202;82;21094;-62